Strona główna
METAR-TAF:

METAR-TAF

Lotnisko :

Port lotniczy Dżakarta-Soekarno-Hatta

Dżakarta, Jawa, Indonezja

Szerokość geograficzna: 06-07S, Długość geograficzna: 106-39E, wysokość: 8 m

Aktualna obserwacja pogody

Raport powstał 23 minut temu, godzina 19:00 UTC
Wiatr 6 kt od zachodnio-południowy zachód
Temperatura 26°C
Wilgotność 79%
Ciśnienie 1011 hPa
Widzialność: 6000 m
Mało chmury na wysokości 2000 ft

METAR: WIII 111900Z 25006KT 6000 FEW020 26/22 Q1011 NOSIG

czas: 02:23 (19:23 UTC)

Prognoza

Raport powstał 2 godziny i 23 minut temu, godzina 17:00 UTC
Prognoza ważna od 11 godzina 18 UTC do 12 godzina 24 UTC
Wiatr 6 kt od zachód
Widzialność: 5000 m
Rozproszone chmury na wysokości 2000 ft
zmętnienie
Stopniowe zmiany
od 12 godzina 02 UTC do 12 godzina 04 UTC
Wiatr 12 kt od północ
Widzialność: 8000 m

TAF: WIII 111700Z 1118/1224 27006KT 5000 HZ SCT020 BECMG 1202/1204 35012KT 8000 NSW

Obserwacja i prognoza pogody dla ponad 4000 lotnisk (raport METAR i TAF).

Dostępne stacje oznaczono żółtymi i czerwonymi punktami na mapie.

Najedź kursorem aby zobaczyć nazwę stacji.

Kliknij aby zobaczyć obserwacje i prognozy pogody.

Aby zmienić mapę: kliknij na zielony przycisk z czarnym krzyżykiem, aby powiększyć; na zielony przycisk z myślnikiem, aby pomniejszyć; na zielone strzałki, aby przejść do map sąsiednich.


METAR-TAF: